createdAt,value
2022-10-31T00:00:46.348Z,9.02
2022-10-31T00:03:12.221Z,9.55
2022-10-31T00:05:42.036Z,8.10
2022-10-31T00:08:08.052Z,8.48
2022-10-31T00:10:33.751Z,9.10
2022-10-31T00:12:59.820Z,9.27
2022-10-31T00:15:25.714Z,8.75
2022-10-31T00:17:51.371Z,8.93
2022-10-31T00:20:17.061Z,8.27
2022-10-31T00:22:42.737Z,8.32
2022-10-31T00:25:08.556Z,8.48
2022-10-31T00:27:34.212Z,7.85
2022-10-31T00:29:59.957Z,7.65
2022-10-31T00:32:25.708Z,8.82
2022-10-31T00:34:51.379Z,8.10
2022-10-31T00:37:17.145Z,8.15
2022-10-31T00:39:42.805Z,7.55
2022-10-31T00:42:08.561Z,8.43
2022-10-31T00:44:34.330Z,8.70
2022-10-31T00:46:59.988Z,9.15
2022-10-31T00:49:25.646Z,9.55
2022-10-31T00:51:51.389Z,9.45
2022-10-31T00:54:17.063Z,9.57
2022-10-31T00:56:42.758Z,9.00
2022-10-31T00:59:08.484Z,9.77
2022-10-31T01:01:34.240Z,8.45
2022-10-31T01:04:00.000Z,9.52
2022-10-31T01:06:25.693Z,8.70
2022-10-31T01:08:51.375Z,9.35
2022-10-31T01:11:20.396Z,8.65
2022-10-31T01:13:47.067Z,8.90
2022-10-31T01:16:18.309Z,9.10
2022-10-31T01:18:44.711Z,8.55
2022-10-31T01:21:25.100Z,8.70
2022-10-31T01:23:53.684Z,8.30
2022-10-31T01:26:23.643Z,9.32
2022-10-31T01:28:53.378Z,8.98
2022-10-31T01:31:21.543Z,8.98
2022-10-31T01:33:47.258Z,8.68
2022-10-31T01:36:14.158Z,9.15
2022-10-31T01:38:40.242Z,8.55
2022-10-31T01:41:06.125Z,8.93
2022-10-31T01:43:53.588Z,8.98
2022-10-31T01:46:40.902Z,9.25
2022-10-31T01:49:15.041Z,8.63
2022-10-31T01:52:04.336Z,9.25
2022-10-31T01:54:36.554Z,8.55
2022-10-31T01:57:03.389Z,8.10
2022-10-31T01:59:33.322Z,7.97
2022-10-31T02:01:59.198Z,8.95
2022-10-31T02:04:26.359Z,8.55
2022-10-31T02:06:59.281Z,9.48
2022-10-31T02:09:26.274Z,8.20
2022-10-31T02:11:54.929Z,7.55
2022-10-31T02:14:23.710Z,7.28
2022-10-31T02:16:49.668Z,8.25
2022-10-31T02:19:32.352Z,7.97
2022-10-31T02:22:22.520Z,7.72
2022-10-31T02:24:57.323Z,7.95
2022-10-31T02:27:48.801Z,7.47
2022-10-31T02:30:28.187Z,7.70
2022-10-31T02:33:05.442Z,8.13
2022-10-31T02:36:02.126Z,8.30
2022-10-31T02:38:49.730Z,7.72
2022-10-31T02:41:46.384Z,7.25
2022-10-31T02:44:36.487Z,8.02
2022-10-31T02:47:16.236Z,8.25
2022-10-31T02:49:59.441Z,7.15
2022-10-31T02:52:30.221Z,7.10
2022-10-31T02:54:55.916Z,7.60
2022-10-31T02:57:31.164Z,7.47
2022-10-31T03:00:07.627Z,7.95
2022-10-31T03:02:48.480Z,7.30
2022-10-31T03:05:35.728Z,7.43
2022-10-31T03:08:33.410Z,7.03
2022-10-31T03:11:01.376Z,6.85
2022-10-31T03:13:33.223Z,7.22
2022-10-31T03:16:12.518Z,7.28
2022-10-31T03:19:00.528Z,7.47
2022-10-31T03:21:30.644Z,6.07
2022-10-31T03:23:57.760Z,6.85
2022-10-31T03:26:25.151Z,7.00
2022-10-31T03:28:57.556Z,7.65
2022-10-31T03:31:29.778Z,7.22
2022-10-31T03:33:58.719Z,7.40
2022-10-31T03:36:27.152Z,7.13
2022-10-31T03:38:53.802Z,7.50
2022-10-31T03:41:24.103Z,6.80
2022-10-31T03:44:08.023Z,7.25
2022-10-31T03:46:34.556Z,7.72
2022-10-31T03:49:01.398Z,6.63
2022-10-31T03:51:39.492Z,6.93
2022-10-31T03:54:11.135Z,6.97
2022-10-31T03:56:49.879Z,6.78
2022-10-31T03:59:24.868Z,6.70
2022-10-31T04:01:58.095Z,5.70
2022-10-31T04:04:25.818Z,6.85
2022-10-31T04:06:52.495Z,6.78
2022-10-31T04:09:20.265Z,7.40
2022-10-31T04:11:53.217Z,7.05
2022-10-31T04:14:18.938Z,6.80
2022-10-31T04:16:45.077Z,6.75
2022-10-31T04:19:12.157Z,7.18
2022-10-31T04:21:37.907Z,6.40
2022-10-31T04:24:03.867Z,6.30
2022-10-31T04:26:29.524Z,6.88
2022-10-31T04:28:55.295Z,6.03
2022-10-31T04:31:21.113Z,6.35
2022-10-31T04:33:46.789Z,6.15
2022-10-31T04:36:12.473Z,6.22
2022-10-31T04:38:38.239Z,6.55
2022-10-31T04:41:04.345Z,6.72
2022-10-31T04:43:30.057Z,6.18
2022-10-31T04:45:55.845Z,6.13
2022-10-31T04:48:21.543Z,6.68
2022-10-31T04:50:47.224Z,6.15
2022-10-31T04:53:13.113Z,6.32
2022-10-31T04:55:38.810Z,6.05
2022-10-31T04:58:04.981Z,6.68
2022-10-31T05:00:31.154Z,6.22
2022-10-31T05:02:58.910Z,5.97
2022-10-31T05:05:28.574Z,7.32
2022-10-31T05:07:54.818Z,6.53
2022-10-31T05:10:24.148Z,6.13
2022-10-31T05:12:52.291Z,6.03
2022-10-31T05:15:19.208Z,6.25
2022-10-31T05:17:45.209Z,6.20
2022-10-31T05:20:12.919Z,6.07
2022-10-31T05:22:43.831Z,6.35
2022-10-31T05:25:09.553Z,6.65
2022-10-31T05:27:35.250Z,6.47
2022-10-31T05:32:37.541Z,6.70
2022-10-31T05:35:03.563Z,5.95
2022-10-31T05:37:29.394Z,6.47
2022-10-31T05:39:55.054Z,6.38
2022-10-31T05:42:20.826Z,6.10
2022-10-31T05:44:46.708Z,6.20
2022-10-31T05:47:12.403Z,6.03
2022-10-31T05:49:38.162Z,6.10
2022-10-31T05:52:04.296Z,6.13
2022-10-31T05:54:29.973Z,6.18
2022-10-31T05:56:55.831Z,6.20
2022-10-31T05:59:21.500Z,6.38
2022-10-31T06:01:47.192Z,6.40
2022-10-31T06:04:12.984Z,6.30
2022-10-31T06:06:38.677Z,5.88
2022-10-31T06:09:04.338Z,7.05
2022-10-31T06:11:30.100Z,7.00
2022-10-31T06:13:55.827Z,7.45
2022-10-31T06:16:21.486Z,7.95
2022-10-31T06:18:47.721Z,8.15
2022-10-31T06:21:16.389Z,7.45
2022-10-31T06:23:44.747Z,7.75
2022-10-31T06:26:10.428Z,7.47
2022-10-31T06:28:36.169Z,7.85
2022-10-31T06:31:01.976Z,7.32
2022-10-31T06:33:27.680Z,7.43
2022-10-31T06:35:53.388Z,6.82
2022-10-31T06:38:19.086Z,6.50
2022-10-31T06:40:44.930Z,7.45
2022-10-31T06:43:11.525Z,7.20
2022-10-31T06:45:37.735Z,6.78
2022-10-31T06:48:16.619Z,7.53
2022-10-31T06:55:41.262Z,7.05
2022-10-31T06:58:07.213Z,7.18
2022-10-31T07:00:33.196Z,8.10
2022-10-31T07:03:00.973Z,7.72
2022-10-31T07:05:27.874Z,7.15
2022-10-31T07:13:14.499Z,6.82
2022-10-31T07:18:15.520Z,6.70
2022-10-31T07:20:41.171Z,6.57
2022-10-31T07:23:09.564Z,6.55
2022-10-31T07:25:35.243Z,7.22
2022-10-31T07:28:01.214Z,7.63
2022-10-31T07:30:27.350Z,7.00
2022-10-31T07:32:53.325Z,6.80
2022-10-31T07:35:27.700Z,7.13
2022-10-31T07:37:53.401Z,7.03
2022-10-31T07:40:19.787Z,7.30
2022-10-31T07:42:48.776Z,6.78
2022-10-31T07:47:53.738Z,7.65
2022-10-31T07:58:18.895Z,6.65
2022-10-31T08:00:46.366Z,6.43
2022-10-31T08:03:14.994Z,6.88
2022-10-31T08:05:46.030Z,7.03
2022-10-31T08:08:12.794Z,7.10
2022-10-31T08:10:39.098Z,6.22
2022-10-31T08:13:13.188Z,6.63
2022-10-31T08:15:41.616Z,6.28
2022-10-31T08:18:12.492Z,6.85
2022-10-31T08:20:38.172Z,6.50
2022-10-31T08:23:05.054Z,7.60
2022-10-31T08:25:35.625Z,7.78
2022-10-31T08:30:33.316Z,7.07
2022-10-31T08:33:09.381Z,7.15
2022-10-31T08:35:35.448Z,7.25
2022-10-31T08:38:01.654Z,7.38
2022-10-31T08:40:29.621Z,8.20
2022-10-31T08:42:57.169Z,7.40
2022-10-31T08:45:22.908Z,7.55
2022-10-31T08:47:48.612Z,8.07
2022-10-31T08:50:14.324Z,7.35
2022-10-31T08:53:03.434Z,7.60
2022-10-31T08:55:25.905Z,7.38
2022-10-31T08:57:58.487Z,8.43
2022-10-31T09:00:25.006Z,7.68
2022-10-31T09:03:02.925Z,7.15
2022-10-31T09:05:28.675Z,7.30
2022-10-31T09:07:59.403Z,7.65
2022-10-31T09:10:26.260Z,7.85
2022-10-31T09:13:06.455Z,7.72
2022-10-31T09:15:34.087Z,7.43
2022-10-31T09:18:01.189Z,6.88
2022-10-31T09:20:28.194Z,7.68
2022-10-31T09:22:58.773Z,7.15
2022-10-31T09:25:24.752Z,8.00
2022-10-31T09:27:50.438Z,6.95
2022-10-31T09:30:16.114Z,6.75
2022-10-31T09:32:41.929Z,7.20
2022-10-31T09:35:08.143Z,7.10
2022-10-31T09:37:34.038Z,7.45
2022-10-31T09:39:59.779Z,7.60
2022-10-31T09:43:04.586Z,7.00
2022-10-31T09:45:52.429Z,7.10
2022-10-31T09:48:30.667Z,7.22
2022-10-31T09:51:00.366Z,8.10
2022-10-31T09:53:51.634Z,6.65
2022-10-31T09:56:23.156Z,7.82
2022-10-31T09:58:55.795Z,7.43
2022-10-31T10:01:39.391Z,7.18
2022-10-31T10:04:26.626Z,7.38
2022-10-31T10:06:52.905Z,7.18
2022-10-31T10:09:24.683Z,7.53
2022-10-31T10:12:19.459Z,7.05
2022-10-31T10:14:57.241Z,7.50
2022-10-31T10:18:01.001Z,7.68
2022-10-31T10:20:49.448Z,7.57
2022-10-31T10:23:36.702Z,7.63
2022-10-31T10:26:17.540Z,7.93
2022-10-31T10:28:47.683Z,8.10
2022-10-31T10:31:21.719Z,8.10
2022-10-31T10:34:01.410Z,6.90
2022-10-31T10:36:31.198Z,7.88
2022-10-31T10:39:05.218Z,8.20
2022-10-31T10:41:34.534Z,7.80
2022-10-31T10:44:00.563Z,7.22
2022-10-31T10:46:50.992Z,7.60
2022-10-31T10:49:26.307Z,7.68
2022-10-31T10:52:07.324Z,7.38
2022-10-31T10:54:56.726Z,7.28
2022-10-31T10:57:59.326Z,7.60
2022-10-31T11:00:29.969Z,7.82
2022-10-31T11:02:56.203Z,7.05
2022-10-31T11:05:36.855Z,8.70
2022-10-31T11:08:04.189Z,7.65
2022-10-31T11:10:30.171Z,7.40
2022-10-31T11:13:06.928Z,7.13
2022-10-31T11:15:38.611Z,7.55
2022-10-31T11:18:05.093Z,7.85
2022-10-31T11:20:34.813Z,7.30
2022-10-31T11:23:15.593Z,7.25
2022-10-31T11:25:48.658Z,7.10
2022-10-31T11:28:14.416Z,7.03
2022-10-31T11:31:07.863Z,7.30
2022-10-31T11:33:37.423Z,6.97
2022-10-31T11:36:16.369Z,7.50
2022-10-31T11:38:43.847Z,7.53
2022-10-31T11:41:27.776Z,7.38
2022-10-31T11:43:59.322Z,7.25
2022-10-31T11:46:37.896Z,8.00
2022-10-31T11:49:05.606Z,7.40
2022-10-31T11:51:35.519Z,7.20
2022-10-31T11:54:04.103Z,7.47
2022-10-31T11:56:39.223Z,7.60
2022-10-31T11:59:15.511Z,7.72
2022-10-31T12:01:48.846Z,7.55
2022-10-31T12:04:17.114Z,7.20
2022-10-31T12:06:47.523Z,8.23
2022-10-31T12:09:25.262Z,8.25
2022-10-31T12:11:57.689Z,7.53
2022-10-31T12:14:46.482Z,7.70
2022-10-31T12:17:16.951Z,6.95
2022-10-31T12:20:01.117Z,7.40
2022-10-31T12:22:42.815Z,7.65
2022-10-31T12:25:30.355Z,8.20
2022-10-31T12:28:11.401Z,7.70
2022-10-31T12:31:11.498Z,8.55
2022-10-31T12:34:01.610Z,8.40
2022-10-31T12:37:05.886Z,8.23
2022-10-31T12:39:58.903Z,8.00
2022-10-31T12:42:30.961Z,7.75
2022-10-31T12:45:15.283Z,7.95
2022-10-31T12:47:41.520Z,7.88
2022-10-31T12:50:37.638Z,8.00
2022-10-31T12:53:21.703Z,8.30
2022-10-31T12:56:30.089Z,8.27
2022-10-31T12:59:00.019Z,7.72
2022-10-31T13:01:28.933Z,7.55
2022-10-31T13:04:05.239Z,7.78
2022-10-31T13:06:44.906Z,7.53
2022-10-31T13:09:17.995Z,8.25
2022-10-31T13:11:58.586Z,7.95
2022-10-31T13:14:37.542Z,7.93
2022-10-31T13:17:05.847Z,8.05
2022-10-31T13:19:38.233Z,8.18
2022-10-31T13:22:13.175Z,8.02
2022-10-31T13:24:56.169Z,9.15
2022-10-31T13:27:28.442Z,7.70
2022-10-31T13:30:16.349Z,8.38
2022-10-31T13:32:47.831Z,7.78
2022-10-31T13:35:35.748Z,8.40
2022-10-31T13:38:15.293Z,7.93
2022-10-31T13:40:58.001Z,8.00
2022-10-31T13:43:35.820Z,7.72
2022-10-31T13:46:01.500Z,8.20
2022-10-31T13:48:39.408Z,8.40
2022-10-31T13:51:10.588Z,8.60
2022-10-31T13:53:42.984Z,8.02
2022-10-31T13:56:08.604Z,7.70
2022-10-31T13:58:34.994Z,8.68
2022-10-31T14:01:19.049Z,7.97
2022-10-31T14:04:10.959Z,7.88
2022-10-31T14:06:51.372Z,8.02
2022-10-31T14:09:50.162Z,7.93
2022-10-31T14:12:29.791Z,8.00
2022-10-31T14:15:20.332Z,8.85
2022-10-31T14:17:51.017Z,7.85
2022-10-31T14:20:16.667Z,8.05
2022-10-31T14:22:43.138Z,7.47
2022-10-31T14:25:33.288Z,7.97
2022-10-31T14:28:02.114Z,7.88
2022-10-31T14:30:30.068Z,7.60
2022-10-31T14:32:59.220Z,7.80
2022-10-31T14:35:34.752Z,7.82
2022-10-31T14:38:30.111Z,7.90
2022-10-31T14:41:15.616Z,7.40
2022-10-31T14:43:59.422Z,6.95
2022-10-31T14:46:34.175Z,7.75
2022-10-31T14:49:39.616Z,7.65
2022-10-31T14:52:08.162Z,8.02
2022-10-31T14:54:40.617Z,8.70
2022-10-31T14:57:22.549Z,9.13
2022-10-31T14:59:53.149Z,9.25
2022-10-31T15:02:26.480Z,9.60
2022-10-31T15:04:54.798Z,9.00
2022-10-31T15:07:24.957Z,9.27
2022-10-31T15:10:02.537Z,9.85
2022-10-31T15:12:31.147Z,9.38
2022-10-31T15:14:58.624Z,8.27
2022-10-31T15:17:25.780Z,9.15
2022-10-31T15:19:53.267Z,10.48
2022-10-31T15:22:25.140Z,9.38
2022-10-31T15:24:56.755Z,7.93
2022-10-31T15:27:23.867Z,8.32
2022-10-31T15:32:22.553Z,7.63
2022-10-31T15:34:49.046Z,7.50
2022-10-31T15:37:17.096Z,7.70
2022-10-31T15:39:45.337Z,7.88
2022-10-31T15:42:31.140Z,7.22
2022-10-31T15:45:11.839Z,7.75
2022-10-31T15:47:38.441Z,8.10
2022-10-31T15:50:18.491Z,8.07
2022-10-31T15:52:48.415Z,7.97
2022-10-31T15:55:15.794Z,7.78
2022-10-31T15:57:51.001Z,8.38
2022-10-31T16:00:38.501Z,8.70
2022-10-31T16:03:10.632Z,8.25
2022-10-31T16:05:45.879Z,8.30
2022-10-31T16:08:36.315Z,8.32
2022-10-31T16:11:08.069Z,7.97
2022-10-31T16:13:37.551Z,8.45
2022-10-31T16:19:00.050Z,8.23
2022-10-31T16:21:30.296Z,8.00
2022-10-31T16:24:03.819Z,9.00
2022-10-31T16:26:31.659Z,7.00
2022-10-31T16:29:04.769Z,7.82
2022-10-31T16:31:38.122Z,7.97
2022-10-31T16:34:15.941Z,8.38
2022-10-31T16:36:42.284Z,8.65
2022-10-31T16:39:08.349Z,8.68
2022-10-31T16:41:40.750Z,8.90
2022-10-31T16:44:22.513Z,9.32
2022-10-31T16:46:48.209Z,10.73
2022-10-31T16:49:15.958Z,10.70
2022-10-31T16:51:42.365Z,10.98
2022-10-31T16:54:10.413Z,10.48
2022-10-31T16:56:37.919Z,10.85
2022-10-31T16:59:08.992Z,9.88
2022-10-31T17:01:40.274Z,9.50
2022-10-31T17:04:05.985Z,9.35
2022-10-31T17:06:32.832Z,10.82
2022-10-31T17:08:58.657Z,13.18
2022-10-31T17:11:26.106Z,14.05
2022-10-31T17:13:52.999Z,13.70
2022-10-31T17:16:18.815Z,12.80
2022-10-31T17:18:46.057Z,13.65
2022-10-31T17:23:41.300Z,13.30
2022-10-31T17:26:09.500Z,14.75
2022-10-31T17:28:35.188Z,12.05
2022-10-31T17:31:01.009Z,12.07
2022-10-31T17:33:26.878Z,12.43
2022-10-31T17:35:52.617Z,13.23
2022-10-31T17:38:18.506Z,12.32
2022-10-31T17:40:44.482Z,13.02
2022-10-31T17:43:11.342Z,13.88
2022-10-31T17:45:41.447Z,13.48
2022-10-31T17:48:08.844Z,12.85
2022-10-31T17:53:01.118Z,12.25
2022-10-31T17:58:11.460Z,12.20
2022-10-31T18:00:38.826Z,10.95
2022-10-31T18:05:31.031Z,14.45
2022-10-31T18:07:59.626Z,16.73
2022-10-31T18:10:29.366Z,20.02
2022-10-31T18:12:55.059Z,22.95
2022-10-31T18:15:20.763Z,20.33
2022-10-31T18:17:46.711Z,21.92
2022-10-31T18:20:12.414Z,19.33
2022-10-31T18:22:38.395Z,17.13
2022-10-31T18:25:04.900Z,17.67
2022-10-31T18:27:30.847Z,18.17
2022-10-31T18:29:56.626Z,17.60
2022-10-31T18:32:22.543Z,19.30
2022-10-31T18:34:48.285Z,24.15
2022-10-31T18:37:13.985Z,19.52
2022-10-31T18:39:39.650Z,20.45
2022-10-31T18:42:05.476Z,19.58
2022-10-31T18:44:32.008Z,19.45
2022-10-31T18:46:57.676Z,19.00
2022-10-31T18:49:23.682Z,18.80
2022-10-31T18:51:49.931Z,21.88
2022-10-31T18:54:15.765Z,25.48
2022-10-31T18:56:41.569Z,23.40
2022-10-31T18:59:07.628Z,22.50
2022-10-31T19:01:33.554Z,19.92
2022-10-31T19:03:59.425Z,21.38
2022-10-31T19:06:26.347Z,20.10
2022-10-31T19:09:04.532Z,20.38
2022-10-31T19:11:34.031Z,24.50
2022-10-31T19:14:00.093Z,26.73
2022-10-31T19:16:26.640Z,27.80
2022-10-31T19:18:56.735Z,26.95
2022-10-31T19:21:23.109Z,26.65
2022-10-31T19:23:51.756Z,24.77
2022-10-31T19:26:18.105Z,22.23
2022-10-31T19:28:44.033Z,23.95
2022-10-31T19:31:10.436Z,22.45
2022-10-31T19:33:36.567Z,23.13
2022-10-31T19:36:11.093Z,23.90
2022-10-31T19:38:38.548Z,24.17
2022-10-31T19:41:08.131Z,21.75
2022-10-31T19:43:33.984Z,23.13
2022-10-31T19:46:01.075Z,23.65
2022-10-31T19:48:27.222Z,21.42
2022-10-31T19:50:58.417Z,22.08
2022-10-31T19:53:24.293Z,19.42
2022-10-31T19:55:50.102Z,23.38
2022-10-31T19:58:16.340Z,26.17
2022-10-31T20:00:42.321Z,23.13
2022-10-31T20:03:09.477Z,22.67
2022-10-31T20:05:40.620Z,21.85
2022-10-31T20:08:07.277Z,20.23
2022-10-31T20:10:33.201Z,20.63
2022-10-31T20:12:59.253Z,21.25
2022-10-31T20:15:25.217Z,20.30
2022-10-31T20:17:50.962Z,20.63
2022-10-31T20:20:16.850Z,21.02
2022-10-31T20:22:42.638Z,20.42
2022-10-31T20:25:08.347Z,18.83
2022-10-31T20:27:34.099Z,18.08
2022-10-31T20:30:00.188Z,18.90
2022-10-31T20:32:25.887Z,18.60
2022-10-31T20:34:51.616Z,19.33
2022-10-31T20:37:17.315Z,17.92
2022-10-31T20:39:43.280Z,18.05
2022-10-31T20:42:09.042Z,19.45
2022-10-31T20:44:34.722Z,17.23
2022-10-31T20:47:00.378Z,17.80
2022-10-31T20:49:26.098Z,17.90
2022-10-31T20:51:51.800Z,18.42
2022-10-31T20:56:59.799Z,20.55
2022-10-31T20:59:25.471Z,21.67
2022-10-31T21:04:27.827Z,18.27
2022-10-31T21:09:28.798Z,21.55
2022-10-31T21:14:29.995Z,20.55
2022-10-31T21:16:55.667Z,18.10
2022-10-31T21:19:21.766Z,17.85
2022-10-31T21:21:47.801Z,18.05
2022-10-31T21:26:50.454Z,19.25
2022-10-31T21:29:17.512Z,18.35
2022-10-31T21:31:43.864Z,18.17
2022-10-31T21:34:10.355Z,17.15
2022-10-31T21:36:36.439Z,16.80
2022-10-31T21:39:04.183Z,16.70
2022-10-31T21:41:29.903Z,16.70
2022-10-31T21:43:55.665Z,15.70
2022-10-31T21:46:23.910Z,14.95
2022-10-31T21:48:49.787Z,16.85
2022-10-31T21:51:26.737Z,16.02
2022-10-31T21:54:12.240Z,15.60
2022-10-31T21:56:38.241Z,15.93
2022-10-31T21:59:04.608Z,18.85
2022-10-31T22:01:31.172Z,15.98
2022-10-31T22:03:58.099Z,17.10
2022-10-31T22:06:25.864Z,16.05
2022-10-31T22:08:52.533Z,14.27
2022-10-31T22:11:18.832Z,14.32
2022-10-31T22:13:47.238Z,16.13
2022-10-31T22:16:15.306Z,14.65
2022-10-31T22:18:42.547Z,13.95
2022-10-31T22:21:15.535Z,14.27
2022-10-31T22:23:42.034Z,14.15
2022-10-31T22:26:15.320Z,13.30
2022-10-31T22:28:43.470Z,14.75
2022-10-31T22:33:38.430Z,14.63
2022-10-31T22:36:06.818Z,14.45
2022-10-31T22:38:33.860Z,14.38
2022-10-31T22:41:01.307Z,14.52
2022-10-31T22:45:59.885Z,13.02
2022-10-31T22:48:26.758Z,13.85
2022-10-31T22:50:52.966Z,13.88
2022-10-31T22:53:18.927Z,13.55
2022-10-31T22:55:44.886Z,13.48
2022-10-31T22:58:10.561Z,14.15
2022-10-31T23:00:36.760Z,13.57
2022-10-31T23:03:02.520Z,12.80
2022-10-31T23:05:28.196Z,13.95
2022-10-31T23:07:53.916Z,14.15
2022-10-31T23:10:19.610Z,12.95
2022-10-31T23:13:03.836Z,14.68
2022-10-31T23:15:29.495Z,14.02
2022-10-31T23:17:56.160Z,14.10
2022-10-31T23:20:22.336Z,13.82
2022-10-31T23:22:48.005Z,14.60
2022-10-31T23:25:32.204Z,13.65
2022-10-31T23:27:57.851Z,14.40
2022-10-31T23:30:23.845Z,14.40
2022-10-31T23:32:49.517Z,14.23
2022-10-31T23:35:15.206Z,12.48
2022-10-31T23:37:40.887Z,14.23
2022-10-31T23:40:10.285Z,13.70
2022-10-31T23:42:35.930Z,12.73
2022-10-31T23:45:02.029Z,13.60
2022-10-31T23:47:27.724Z,13.38
2022-10-31T23:49:53.773Z,13.73
2022-10-31T23:52:19.460Z,13.23
2022-10-31T23:54:45.198Z,12.55
2022-10-31T23:57:15.079Z,13.75
2022-10-31T23:59:40.878Z,14.68
